createdAt,value
2022-09-30T00:01:46.403Z,98356.02
2022-09-30T00:04:26.496Z,98354.80
2022-09-30T00:06:58.409Z,98355.52
2022-09-30T00:09:32.849Z,98355.79
2022-09-30T00:12:05.828Z,98355.73
2022-09-30T00:14:42.386Z,98364.66
2022-09-30T00:17:13.589Z,98364.77
2022-09-30T00:19:43.302Z,98373.23
2022-09-30T00:22:15.850Z,98368.89
2022-09-30T00:24:46.835Z,98368.98
2022-09-30T00:27:18.500Z,98364.23
2022-09-30T00:29:47.110Z,98360.92
2022-09-30T00:32:15.638Z,98357.81
2022-09-30T00:34:44.766Z,98357.94
2022-09-30T00:37:15.576Z,98360.73
2022-09-30T00:39:44.200Z,98362.86
2022-09-30T00:42:15.340Z,98358.41
2022-09-30T00:44:53.256Z,98353.59
2022-09-30T00:47:34.791Z,98347.61
2022-09-30T00:50:14.551Z,98347.83
2022-09-30T00:52:47.978Z,98347.73
2022-09-30T00:55:35.904Z,98352.92
2022-09-30T00:58:09.265Z,98355.34
2022-09-30T01:00:38.198Z,98352.86
2022-09-30T01:03:07.956Z,98356.58
2022-09-30T01:05:36.672Z,98359.97
2022-09-30T01:08:09.219Z,98360.00
2022-09-30T01:10:39.060Z,98359.80
2022-09-30T01:13:07.699Z,98353.04
2022-09-30T01:15:56.716Z,98361.73
2022-09-30T01:18:51.534Z,98367.30
2022-09-30T01:21:43.623Z,98369.64
2022-09-30T01:24:34.141Z,98366.36
2022-09-30T01:27:15.617Z,98358.16
2022-09-30T01:29:47.066Z,98358.64
2022-09-30T01:32:45.370Z,98359.88
2022-09-30T01:35:38.086Z,98351.88
2022-09-30T01:38:30.514Z,98351.95
2022-09-30T01:41:09.454Z,98353.02
2022-09-30T01:43:45.710Z,98355.84
2022-09-30T01:46:31.340Z,98365.20
2022-09-30T01:49:11.922Z,98360.94
2022-09-30T01:51:55.147Z,98365.20
2022-09-30T01:54:48.092Z,98363.38
2022-09-30T01:57:27.355Z,98364.73
2022-09-30T02:00:07.952Z,98360.59
2022-09-30T02:02:51.624Z,98361.80
2022-09-30T02:05:38.932Z,98365.30
2022-09-30T02:08:48.000Z,98377.08
2022-09-30T02:11:25.529Z,98382.55
2022-09-30T02:14:23.780Z,98376.63
2022-09-30T02:17:02.568Z,98373.27
2022-09-30T02:19:39.991Z,98373.41
2022-09-30T02:22:16.985Z,98366.88
2022-09-30T02:24:50.996Z,98363.68
2022-09-30T02:27:28.437Z,98353.70
2022-09-30T02:30:01.789Z,98347.83
2022-09-30T02:32:41.108Z,98344.66
2022-09-30T02:35:14.191Z,98350.83
2022-09-30T02:37:50.694Z,98341.61
2022-09-30T02:40:42.104Z,98331.64
2022-09-30T02:43:11.470Z,98334.70
2022-09-30T02:45:52.430Z,98340.60
2022-09-30T02:48:32.236Z,98342.63
2022-09-30T02:51:26.990Z,98349.58
2022-09-30T02:54:07.756Z,98342.42
2022-09-30T02:56:50.793Z,98349.27
2022-09-30T02:59:20.107Z,98357.11
2022-09-30T03:01:48.872Z,98367.58
2022-09-30T03:04:27.489Z,98369.25
2022-09-30T03:06:56.139Z,98365.66
2022-09-30T03:09:26.454Z,98368.29
2022-09-30T03:12:18.428Z,98370.59
2022-09-30T03:15:05.125Z,98370.50
2022-09-30T03:17:57.765Z,98371.17
2022-09-30T03:20:32.018Z,98364.55
2022-09-30T03:23:15.672Z,98364.92
2022-09-30T03:26:36.364Z,98370.01
2022-09-30T03:29:31.714Z,98373.23
2022-09-30T03:32:09.484Z,98377.67
2022-09-30T03:34:58.831Z,98372.36
2022-09-30T03:37:47.195Z,98370.52
2022-09-30T03:40:46.471Z,98374.96
2022-09-30T03:43:35.829Z,98375.59
2022-09-30T03:46:13.992Z,98379.64
2022-09-30T03:48:46.555Z,98385.66
2022-09-30T03:51:16.001Z,98386.33
2022-09-30T03:53:46.909Z,98388.08
2022-09-30T03:56:15.496Z,98388.75
2022-09-30T03:58:45.007Z,98388.48
2022-09-30T04:01:23.755Z,98386.56
2022-09-30T04:03:54.076Z,98384.43
2022-09-30T04:06:25.887Z,98386.95
2022-09-30T04:08:54.369Z,98384.41
2022-09-30T04:11:22.873Z,98384.30
2022-09-30T04:13:51.295Z,98384.08
2022-09-30T04:16:19.888Z,98389.80
2022-09-30T04:18:48.493Z,98386.14
2022-09-30T04:21:17.101Z,98385.61
2022-09-30T04:23:45.748Z,98387.81
2022-09-30T04:26:17.526Z,98386.88
2022-09-30T04:28:46.811Z,98390.16
2022-09-30T04:31:18.003Z,98390.73
2022-09-30T04:33:46.504Z,98392.47
2022-09-30T04:36:14.937Z,98387.95
2022-09-30T04:38:43.869Z,98387.42
2022-09-30T04:41:18.898Z,98389.08
2022-09-30T04:43:48.612Z,98392.48
2022-09-30T04:46:19.172Z,98398.20
2022-09-30T04:48:48.417Z,98398.88
2022-09-30T04:51:19.600Z,98400.41
2022-09-30T04:53:49.441Z,98408.78
2022-09-30T04:56:17.847Z,98411.62
2022-09-30T04:58:46.147Z,98413.23
2022-09-30T05:01:17.204Z,98410.48
2022-09-30T05:03:47.502Z,98406.68
2022-09-30T05:06:15.954Z,98407.16
2022-09-30T05:08:45.980Z,98409.97
2022-09-30T05:11:19.708Z,98407.91
2022-09-30T05:13:49.182Z,98404.73
2022-09-30T05:16:18.522Z,98405.73
2022-09-30T05:18:47.294Z,98411.08
2022-09-30T05:21:20.954Z,98415.08
2022-09-30T05:23:49.301Z,98416.83
2022-09-30T05:26:17.732Z,98415.93
2022-09-30T05:28:46.041Z,98418.69
2022-09-30T05:31:14.372Z,98418.52
2022-09-30T05:33:42.783Z,98421.92
2022-09-30T05:36:15.380Z,98426.80
2022-09-30T05:38:44.065Z,98426.98
2022-09-30T05:41:15.098Z,98428.20
2022-09-30T05:43:50.280Z,98427.66
2022-09-30T05:46:20.352Z,98429.34
2022-09-30T05:48:48.811Z,98430.54
2022-09-30T05:51:17.138Z,98433.54
2022-09-30T05:53:45.546Z,98434.45
2022-09-30T05:56:14.325Z,98440.93
2022-09-30T05:58:42.691Z,98443.69
2022-09-30T06:01:14.045Z,98441.38
2022-09-30T06:03:45.620Z,98444.17
2022-09-30T06:06:15.995Z,98445.06
2022-09-30T06:08:44.644Z,98444.24
2022-09-30T06:11:18.901Z,98441.42
2022-09-30T06:13:49.307Z,98445.66
2022-09-30T06:16:19.938Z,98442.54
2022-09-30T06:18:48.325Z,98440.50
2022-09-30T06:21:18.347Z,98446.02
2022-09-30T06:23:46.824Z,98447.09
2022-09-30T06:26:15.796Z,98447.27
2022-09-30T06:28:44.997Z,98444.97
2022-09-30T06:31:13.503Z,98447.24
2022-09-30T06:33:42.784Z,98447.41
2022-09-30T06:36:11.399Z,98445.55
2022-09-30T06:38:40.325Z,98442.12
2022-09-30T06:41:08.824Z,98449.66
2022-09-30T06:43:46.204Z,98453.51
2022-09-30T06:46:30.486Z,98452.72
2022-09-30T06:49:11.549Z,98451.62
2022-09-30T06:51:42.308Z,98442.64
2022-09-30T06:54:11.388Z,98440.19
2022-09-30T06:56:39.811Z,98436.86
2022-09-30T06:59:08.178Z,98440.79
2022-09-30T07:01:36.622Z,98446.54
2022-09-30T07:04:09.663Z,98448.36
2022-09-30T07:06:39.284Z,98451.89
2022-09-30T07:09:09.693Z,98450.14
2022-09-30T07:11:38.593Z,98445.19
2022-09-30T07:14:07.932Z,98445.41
2022-09-30T07:16:36.339Z,98442.33
2022-09-30T07:19:06.966Z,98438.73
2022-09-30T07:21:35.253Z,98434.54
2022-09-30T07:24:03.698Z,98433.36
2022-09-30T07:26:32.106Z,98432.77
2022-09-30T07:29:00.973Z,98439.85
2022-09-30T07:31:36.653Z,98439.17
2022-09-30T07:34:07.709Z,98444.33
2022-09-30T07:36:39.703Z,98447.52
2022-09-30T07:39:10.290Z,98455.11
2022-09-30T07:41:40.723Z,98459.13
2022-09-30T07:44:15.015Z,98464.71
2022-09-30T07:46:44.868Z,98468.70
2022-09-30T07:49:25.706Z,98470.13
2022-09-30T07:51:57.324Z,98470.46
2022-09-30T07:54:29.447Z,98469.50
2022-09-30T07:57:09.666Z,98474.63
2022-09-30T07:59:41.325Z,98477.80
2022-09-30T08:02:15.368Z,98473.27
2022-09-30T08:04:44.684Z,98474.30
2022-09-30T08:07:15.649Z,98477.13
2022-09-30T08:09:44.283Z,98478.37
2022-09-30T08:12:12.818Z,98476.38
2022-09-30T08:14:41.037Z,98474.17
2022-09-30T08:17:09.359Z,98474.23
2022-09-30T08:19:38.462Z,98470.99
2022-09-30T08:22:07.665Z,98466.61
2022-09-30T08:24:36.153Z,98468.92
2022-09-30T08:27:05.492Z,98470.79
2022-09-30T08:29:53.981Z,98470.85
2022-09-30T08:32:22.066Z,98471.54
2022-09-30T08:34:50.274Z,98476.13
2022-09-30T08:37:18.621Z,98475.34
2022-09-30T08:39:48.690Z,98476.65
2022-09-30T08:43:00.522Z,98471.68
2022-09-30T08:45:37.947Z,98475.19
2022-09-30T08:48:18.295Z,98475.05
2022-09-30T08:50:57.550Z,98475.86
2022-09-30T08:53:33.206Z,98476.52
2022-09-30T08:56:03.517Z,98477.84
2022-09-30T08:58:37.632Z,98481.27
2022-09-30T09:01:15.496Z,98478.00
2022-09-30T09:03:45.524Z,98472.52
2022-09-30T09:06:23.470Z,98476.14
2022-09-30T09:08:57.858Z,98477.14
2022-09-30T09:11:44.659Z,98478.52
2022-09-30T09:14:26.369Z,98480.20
2022-09-30T09:17:14.625Z,98477.16
2022-09-30T09:20:04.877Z,98472.41
2022-09-30T09:22:35.689Z,98468.76
2022-09-30T09:25:04.850Z,98466.85
2022-09-30T09:27:32.990Z,98470.45
2022-09-30T09:30:07.914Z,98468.96
2022-09-30T09:32:36.885Z,98465.34
2022-09-30T09:35:25.987Z,98460.66
2022-09-30T09:38:36.066Z,98456.45
2022-09-30T09:41:26.524Z,98453.11
2022-09-30T09:44:15.223Z,98454.15
2022-09-30T09:47:05.259Z,98459.06
2022-09-30T09:49:41.038Z,98473.91
2022-09-30T09:52:13.144Z,98481.36
2022-09-30T09:54:52.615Z,98479.98
2022-09-30T09:57:25.017Z,98488.02
2022-09-30T10:02:34.838Z,98493.14
2022-09-30T10:05:11.811Z,98494.95
2022-09-30T10:07:40.085Z,98497.22
2022-09-30T10:10:23.856Z,98499.33
2022-09-30T10:12:52.609Z,98496.29
2022-09-30T10:15:26.729Z,98497.54
2022-09-30T10:17:59.399Z,98497.92
2022-09-30T10:20:34.557Z,98492.35
2022-09-30T10:23:29.096Z,98495.81
2022-09-30T10:26:18.006Z,98499.20
2022-09-30T10:28:55.439Z,98503.52
2022-09-30T10:31:32.530Z,98502.42
2022-09-30T10:34:28.290Z,98505.76
2022-09-30T10:37:01.709Z,98507.54
2022-09-30T10:39:31.128Z,98510.16
2022-09-30T10:42:10.973Z,98510.81
2022-09-30T10:44:46.837Z,98514.26
2022-09-30T10:47:20.780Z,98517.61
2022-09-30T10:49:56.051Z,98522.96
2022-09-30T10:52:32.493Z,98525.90
2022-09-30T10:55:13.808Z,98526.03
2022-09-30T10:57:44.449Z,98526.87
2022-09-30T11:00:27.903Z,98523.61
2022-09-30T11:03:24.283Z,98522.95
2022-09-30T11:05:52.487Z,98523.67
2022-09-30T11:08:27.017Z,98522.94
2022-09-30T11:11:10.318Z,98525.56
2022-09-30T11:13:45.075Z,98522.95
2022-09-30T11:16:25.682Z,98523.38
2022-09-30T11:19:01.598Z,98519.80
2022-09-30T11:21:40.245Z,98516.21
2022-09-30T11:24:14.426Z,98512.36
2022-09-30T11:26:57.426Z,98515.64
2022-09-30T11:29:46.862Z,98514.96
2022-09-30T11:32:49.610Z,98510.76
2022-09-30T11:35:44.820Z,98514.02
2022-09-30T11:38:25.755Z,98516.95
2022-09-30T11:41:05.985Z,98521.09
2022-09-30T11:43:43.051Z,98516.64
2022-09-30T11:46:26.294Z,98515.09
2022-09-30T11:49:27.121Z,98514.04
2022-09-30T11:52:16.501Z,98519.51
2022-09-30T11:55:13.066Z,98520.71
2022-09-30T11:57:54.226Z,98522.96
2022-09-30T12:00:22.614Z,98520.95
2022-09-30T12:02:56.192Z,98523.89
2022-09-30T12:05:33.870Z,98523.27
2022-09-30T12:08:17.774Z,98525.64
2022-09-30T12:10:54.122Z,98531.41
2022-09-30T12:13:30.198Z,98529.53
2022-09-30T12:15:59.992Z,98530.98
2022-09-30T12:18:40.159Z,98533.15
2022-09-30T12:21:35.707Z,98531.88
2022-09-30T12:24:11.826Z,98538.02
2022-09-30T12:26:41.502Z,98538.02
2022-09-30T12:29:37.838Z,98537.90
2022-09-30T12:32:19.449Z,98540.80
2022-09-30T12:35:02.291Z,98542.72
2022-09-30T12:37:36.212Z,98545.36
2022-09-30T12:40:35.896Z,98549.10
2022-09-30T12:43:16.360Z,98551.11
2022-09-30T12:46:41.798Z,98558.21
2022-09-30T12:49:20.080Z,98560.11
2022-09-30T12:51:56.288Z,98560.48
2022-09-30T12:54:37.359Z,98571.40
2022-09-30T12:57:09.496Z,98573.91
2022-09-30T12:59:53.007Z,98579.42
2022-09-30T13:02:41.023Z,98583.79
2022-09-30T13:05:43.242Z,98586.89
2022-09-30T13:08:14.259Z,98591.91
2022-09-30T13:10:48.779Z,98593.45
2022-09-30T13:13:26.049Z,98599.45
2022-09-30T13:16:03.857Z,98600.52
2022-09-30T13:18:32.639Z,98604.23
2022-09-30T13:21:07.927Z,98609.00
2022-09-30T13:23:47.012Z,98607.02
2022-09-30T13:26:27.732Z,98615.38
2022-09-30T13:29:02.103Z,98616.33
2022-09-30T13:31:32.937Z,98621.39
2022-09-30T13:34:01.561Z,98623.00
2022-09-30T13:36:59.407Z,98628.56
2022-09-30T13:39:45.921Z,98632.48
2022-09-30T13:42:26.988Z,98635.33
2022-09-30T13:45:23.535Z,98632.37
2022-09-30T13:48:11.097Z,98632.64
2022-09-30T13:50:52.946Z,98636.25
2022-09-30T13:53:41.135Z,98637.05
2022-09-30T13:56:20.431Z,98638.53
2022-09-30T13:59:26.878Z,98637.86
2022-09-30T14:02:22.270Z,98642.80
2022-09-30T14:05:15.151Z,98644.65
2022-09-30T14:08:21.494Z,98646.85
2022-09-30T14:11:16.407Z,98648.28
2022-09-30T14:14:06.242Z,98648.57
2022-09-30T14:17:01.274Z,98651.77
2022-09-30T14:19:47.681Z,98653.05
2022-09-30T14:22:16.794Z,98650.37
2022-09-30T14:24:45.293Z,98650.19
2022-09-30T14:27:44.222Z,98649.40
2022-09-30T14:30:23.628Z,98652.42
2022-09-30T14:32:59.799Z,98654.18
2022-09-30T14:35:34.448Z,98657.07
2022-09-30T14:38:13.568Z,98661.38
2022-09-30T14:40:53.414Z,98666.27
2022-09-30T14:43:29.127Z,98668.65
2022-09-30T14:46:00.422Z,98672.55
2022-09-30T14:48:33.166Z,98678.52
2022-09-30T14:51:15.277Z,98685.27
2022-09-30T14:53:58.658Z,98684.50
2022-09-30T14:56:54.744Z,98680.24
2022-09-30T14:59:27.902Z,98682.83
2022-09-30T15:02:02.714Z,98691.88
2022-09-30T15:04:35.175Z,98697.23
2022-09-30T15:07:07.372Z,98701.52
2022-09-30T15:09:38.865Z,98703.14
2022-09-30T15:12:15.408Z,98705.98
2022-09-30T15:14:47.384Z,98707.14
2022-09-30T15:17:21.775Z,98706.77
2022-09-30T15:19:51.141Z,98709.16
2022-09-30T15:22:21.025Z,98708.45
2022-09-30T15:24:51.747Z,98708.55
2022-09-30T15:27:27.426Z,98706.22
2022-09-30T15:29:57.714Z,98706.06
2022-09-30T15:32:32.998Z,98704.92
2022-09-30T15:35:19.534Z,98707.20
2022-09-30T15:37:49.053Z,98709.70
2022-09-30T15:40:41.374Z,98715.36
2022-09-30T15:43:15.789Z,98717.70
2022-09-30T15:45:46.433Z,98725.48
2022-09-30T15:48:26.981Z,98735.66
2022-09-30T15:51:01.646Z,98740.34
2022-09-30T15:53:36.881Z,98737.56
2022-09-30T15:56:16.210Z,98740.20
2022-09-30T15:59:00.987Z,98748.83
2022-09-30T16:01:42.995Z,98753.83
2022-09-30T16:04:17.571Z,98755.06
2022-09-30T16:06:52.132Z,98751.32
2022-09-30T16:09:20.414Z,98757.91
2022-09-30T16:12:18.761Z,98762.50
2022-09-30T16:14:49.182Z,98762.30
2022-09-30T16:17:33.568Z,98763.15
2022-09-30T16:20:15.556Z,98762.65
2022-09-30T16:22:43.726Z,98758.39
2022-09-30T16:25:12.086Z,98763.98
2022-09-30T16:27:40.879Z,98764.14
2022-09-30T16:30:14.797Z,98770.06
2022-09-30T16:32:47.170Z,98774.45
2022-09-30T16:35:21.964Z,98775.52
2022-09-30T16:37:51.165Z,98778.52
2022-09-30T16:40:23.442Z,98789.08
2022-09-30T16:42:58.795Z,98800.17
2022-09-30T16:45:28.602Z,98807.50
2022-09-30T16:47:59.307Z,98806.80
2022-09-30T16:50:49.741Z,98811.20
2022-09-30T16:53:18.206Z,98806.09
2022-09-30T16:55:48.209Z,98813.31
2022-09-30T16:58:17.526Z,98819.59
2022-09-30T17:00:46.695Z,98821.11
2022-09-30T17:03:17.770Z,98819.66
2022-09-30T17:05:52.904Z,98815.45
2022-09-30T17:08:22.694Z,98816.64
2022-09-30T17:10:51.295Z,98822.19
2022-09-30T17:13:19.809Z,98828.86
2022-09-30T17:15:50.481Z,98829.45
2022-09-30T17:18:20.189Z,98833.75
2022-09-30T17:20:56.162Z,98832.73
2022-09-30T17:23:26.046Z,98828.07
2022-09-30T17:25:55.095Z,98826.64
2022-09-30T17:28:24.877Z,98822.66
2022-09-30T17:30:54.125Z,98822.66
2022-09-30T17:33:22.338Z,98821.23
2022-09-30T17:36:00.038Z,98819.25
2022-09-30T17:38:29.447Z,98823.61
2022-09-30T17:41:21.888Z,98822.91
2022-09-30T17:43:50.674Z,98827.52
2022-09-30T17:46:23.671Z,98830.83
2022-09-30T17:48:56.354Z,98838.02
2022-09-30T17:51:24.843Z,98844.22
2022-09-30T17:53:53.238Z,98845.61
2022-09-30T17:56:22.944Z,98841.58
2022-09-30T17:58:51.792Z,98846.28
2022-09-30T18:01:21.512Z,98842.36
2022-09-30T18:03:53.698Z,98847.27
2022-09-30T18:06:22.024Z,98849.08
2022-09-30T18:08:51.483Z,98856.91
2022-09-30T18:11:23.109Z,98861.73
2022-09-30T18:13:59.696Z,98864.85
2022-09-30T18:16:33.865Z,98871.29
2022-09-30T18:19:05.385Z,98877.55
2022-09-30T18:21:35.995Z,98880.17
2022-09-30T18:24:07.033Z,98883.88
2022-09-30T18:26:36.202Z,98888.30
2022-09-30T18:29:05.430Z,98889.41
2022-09-30T18:31:38.567Z,98893.98
2022-09-30T18:34:07.658Z,98901.55
2022-09-30T18:36:38.221Z,98902.60
2022-09-30T18:39:07.073Z,98900.95
2022-09-30T18:41:38.024Z,98896.20
2022-09-30T18:44:09.325Z,98897.30
2022-09-30T18:46:37.735Z,98891.08
2022-09-30T18:49:06.022Z,98892.70
2022-09-30T18:51:34.924Z,98894.30
2022-09-30T18:54:06.101Z,98896.77
2022-09-30T18:56:34.368Z,98905.65
2022-09-30T18:59:04.981Z,98905.48
2022-09-30T19:01:34.488Z,98905.73
2022-09-30T19:04:04.222Z,98905.10
2022-09-30T19:06:33.376Z,98902.98
2022-09-30T19:09:03.258Z,98903.56
2022-09-30T19:11:35.393Z,98903.02
2022-09-30T19:14:05.943Z,98905.16
2022-09-30T19:16:38.836Z,98907.13
2022-09-30T19:19:28.608Z,98902.25
2022-09-30T19:22:09.995Z,98894.17
2022-09-30T19:24:48.780Z,98892.11
2022-09-30T19:27:38.568Z,98890.23
2022-09-30T19:30:09.822Z,98890.92
2022-09-30T19:32:46.871Z,98886.34
2022-09-30T19:35:17.938Z,98891.85
2022-09-30T19:37:59.306Z,98893.20
2022-09-30T19:43:03.411Z,98891.63
2022-09-30T19:45:32.011Z,98888.96
2022-09-30T19:48:01.739Z,98889.92
2022-09-30T19:50:30.207Z,98892.38
2022-09-30T19:52:58.752Z,98885.92
2022-09-30T19:55:26.970Z,98874.76
2022-09-30T19:57:55.310Z,98874.89
2022-09-30T20:00:24.387Z,98878.23
2022-09-30T20:02:52.807Z,98889.41
2022-09-30T20:05:21.730Z,98894.98
2022-09-30T20:07:51.478Z,98890.79
2022-09-30T20:10:20.036Z,98893.91
2022-09-30T20:12:48.337Z,98895.49
2022-09-30T20:15:35.463Z,98896.34
2022-09-30T20:18:03.800Z,98899.70
2022-09-30T20:20:35.054Z,98897.80
2022-09-30T20:23:03.766Z,98895.52
2022-09-30T20:25:33.861Z,98897.91
2022-09-30T20:28:04.669Z,98899.21
2022-09-30T20:33:24.686Z,98895.81
2022-09-30T20:35:53.213Z,98902.23
2022-09-30T20:38:24.921Z,98904.45
2022-09-30T20:40:58.506Z,98909.78
2022-09-30T20:43:30.401Z,98913.45
2022-09-30T20:46:02.116Z,98912.66
2022-09-30T20:48:36.038Z,98917.08
2022-09-30T20:51:10.831Z,98916.25
2022-09-30T20:53:39.908Z,98915.86
2022-09-30T20:56:11.767Z,98914.48
2022-09-30T20:58:40.519Z,98911.71
2022-09-30T21:01:20.143Z,98910.21
2022-09-30T21:03:54.295Z,98906.60
2022-09-30T21:06:28.813Z,98907.07
2022-09-30T21:08:57.751Z,98910.61
2022-09-30T21:11:26.678Z,98914.44
2022-09-30T21:13:55.062Z,98914.27
2022-09-30T21:16:25.627Z,98914.90
2022-09-30T21:18:55.793Z,98911.92
2022-09-30T21:21:26.042Z,98913.09
2022-09-30T21:23:59.640Z,98913.64
2022-09-30T21:26:28.333Z,98911.38
2022-09-30T21:29:18.067Z,98912.48
2022-09-30T21:31:47.556Z,98910.98
2022-09-30T21:34:15.914Z,98912.71
2022-09-30T21:37:07.523Z,98918.23
2022-09-30T21:39:41.214Z,98916.38
2022-09-30T21:42:09.526Z,98915.39
2022-09-30T21:44:37.836Z,98914.26
2022-09-30T21:47:06.044Z,98914.02
2022-09-30T21:49:34.438Z,98916.27
2022-09-30T21:52:07.910Z,98913.23
2022-09-30T21:54:39.457Z,98910.11
2022-09-30T21:57:08.718Z,98910.79
2022-09-30T21:59:38.978Z,98909.45
2022-09-30T22:02:07.280Z,98908.91
2022-09-30T22:04:37.779Z,98911.42
2022-09-30T22:07:06.663Z,98913.52
2022-09-30T22:09:39.254Z,98914.27
2022-09-30T22:12:09.100Z,98911.17
2022-09-30T22:14:37.735Z,98912.70
2022-09-30T22:17:10.431Z,98914.35
2022-09-30T22:20:05.977Z,98918.15
2022-09-30T22:22:34.944Z,98916.13
2022-09-30T22:25:03.374Z,98913.41
2022-09-30T22:27:32.395Z,98913.38
2022-09-30T22:30:00.666Z,98914.73
2022-09-30T22:32:29.046Z,98915.48
2022-09-30T22:35:16.359Z,98915.26
2022-09-30T22:38:07.907Z,98918.58
2022-09-30T22:40:36.483Z,98918.39
2022-09-30T22:43:05.166Z,98920.34
2022-09-30T22:45:35.025Z,98919.67
2022-09-30T22:48:03.353Z,98923.45
2022-09-30T22:50:35.763Z,98915.16
2022-09-30T22:53:04.106Z,98918.34
2022-09-30T22:55:33.342Z,98924.09
2022-09-30T22:58:01.541Z,98929.11
2022-09-30T23:00:29.802Z,98932.33
2022-09-30T23:02:58.050Z,98931.56
2022-09-30T23:05:27.028Z,98936.72
2022-09-30T23:07:55.325Z,98935.23
2022-09-30T23:10:24.493Z,98931.91
2022-09-30T23:12:52.934Z,98924.57
2022-09-30T23:15:21.266Z,98923.33
2022-09-30T23:17:50.342Z,98923.94
2022-09-30T23:20:19.042Z,98923.41
2022-09-30T23:22:47.408Z,98921.64
2022-09-30T23:25:15.789Z,98918.63
2022-09-30T23:27:49.105Z,98913.45
2022-09-30T23:30:17.611Z,98911.48
2022-09-30T23:32:45.820Z,98907.88
2022-09-30T23:35:14.239Z,98903.52
2022-09-30T23:37:42.548Z,98903.20
2022-09-30T23:40:10.848Z,98899.34
2022-09-30T23:42:39.010Z,98911.14
2022-09-30T23:45:07.952Z,98915.02
2022-09-30T23:47:36.383Z,98915.73
2022-09-30T23:50:04.871Z,98915.33
2022-09-30T23:52:33.113Z,98910.59
2022-09-30T23:55:01.339Z,98906.09
2022-09-30T23:57:29.549Z,98907.52
2022-09-30T23:59:57.910Z,98912.75
